Time;durP1;ratioP1;P1;durP2;ratioP2;P2;SDS_P1;SDS_P2;PMS_P1;PMS_P2;Temp;Humidity;BMP_temperature;BMP_pressure;BME280_temperature;BME280_humidity;BME280_pressure;Samples;Min_cycle;Max_cycle;Signal;HPM_P1;HPM_P2
2023/10/20 09:14:31;;;;;;;57.93;29.53;;;;;;;11.57;100.00;98910.82;1746816;79;21253;31
2023/10/20 09:17:02;;;;;;;52.17;28.12;;;;;;;11.58;100.00;98907.00;1702578;83;21059;-72
2023/10/20 09:19:31;;;;;;;53.42;28.45;;;;;;;11.60;100.00;98898.00;1742729;80;21019;-71
2023/10/20 09:22:01;;;;;;;47.43;25.48;;;;;;;11.63;100.00;98898.88;1770069;81;21044;-70
2023/10/20 09:24:34;;;;;;;48.10;25.70;;;;;;;11.65;100.00;98896.73;1746764;81;21470;-71
2023/10/20 09:27:03;;;;;;;48.92;26.75;;;;;;;11.67;100.00;98895.13;1737272;82;21059;-71
2023/10/20 09:29:33;;;;;;;46.88;26.75;;;;;;;11.68;100.00;98892.13;1738053;82;21066;-71
2023/10/20 09:32:03;;;;;;;50.50;28.10;;;;;;;11.73;100.00;98895.55;1726040;82;21459;-70
2023/10/20 09:34:35;;;;;;;46.42;27.50;;;;;;;11.75;100.00;98901.09;1727405;83;21042;-72
2023/10/20 09:37:04;;;;;;;50.80;28.12;;;;;;;11.76;100.00;98904.67;1727421;83;21054;-71
2023/10/20 09:39:38;;;;;;;56.35;28.42;;;;;;;11.79;100.00;98895.16;1727728;83;21094;-71
2023/10/20 09:42:07;;;;;;;51.68;28.15;;;;;;;11.84;100.00;98891.98;1727070;83;21910;-70
2023/10/20 09:44:50;;;;;;;47.25;27.32;;;;;;;11.90;100.00;98901.16;1727542;83;21034;-72
2023/10/20 09:47:25;;;;;;;47.80;26.93;;;;;;;11.93;100.00;98902.87;1735665;80;21113;-71
2023/10/20 09:49:55;;;;;;;57.17;29.63;;;;;;;11.97;100.00;98904.59;1729426;82;21012;-71
2023/10/20 09:52:24;;;;;;;47.58;26.93;;;;;;;11.97;100.00;98902.68;1737227;82;21012;-71
2023/10/20 09:54:52;;;;;;;48.95;27.32;;;;;;;11.98;100.00;98899.40;1711924;82;21390;-71
2023/10/20 09:57:21;;;;;;;49.27;27.50;;;;;;;11.98;100.00;98913.13;1697262;83;21070;-70
2023/10/20 09:59:53;;;;;;;47.58;27.13;;;;;;;11.96;100.00;98894.69;1727750;83;21481;-70
2023/10/20 10:02:29;;;;;;;54.27;28.90;;;;;;;11.97;100.00;98899.10;1727410;83;21039;-70
2023/10/20 10:04:58;;;;;;;46.90;26.17;;;;;;;11.96;100.00;98896.89;1733986;82;21091;-71
2023/10/20 10:07:29;;;;;;;51.63;26.70;;;;;;;11.97;100.00;98898.56;1737945;82;21047;-71
2023/10/20 10:09:57;;;;;;;52.08;28.60;;;;;;;11.99;100.00;98905.19;1737732;82;21023;-71
2023/10/20 10:12:27;;;;;;;46.98;28.32;;;;;;;12.00;100.00;98908.22;1737348;82;21098;-70
2023/10/20 10:15:12;;;;;;;44.98;27.27;;;;;;;12.00;100.00;98897.24;1737454;82;21090;-70
2023/10/20 10:17:51;;;;;;;47.08;26.97;;;;;;;12.00;100.00;98895.33;1732704;82;21039;-70
2023/10/20 10:20:25;;;;;;;45.83;26.82;;;;;;;12.03;100.00;98896.75;1732286;83;21060;-69
2023/10/20 10:23:06;;;;;;;48.92;27.60;;;;;;;12.02;100.00;98896.45;1699940;83;21096;-69
2023/10/20 10:25:44;;;;;;;41.53;26.12;;;;;;;12.02;100.00;98899.20;1698737;83;21136;-70
2023/10/20 10:28:18;;;;;;;52.78;26.90;;;;;;;12.03;100.00;98900.88;1669220;84;21045;-70
2023/10/20 10:30:53;;;;;;;45.12;25.02;;;;;;;12.04;100.00;98897.05;1743602;82;21066;-72
2023/10/20 10:33:25;;;;;;;43.52;24.92;;;;;;;12.05;100.00;98900.09;1743897;82;21445;-70
2023/10/20 10:36:05;;;;;;;42.70;24.70;;;;;;;12.06;100.00;98897.64;1744140;82;21461;-71
2023/10/20 10:38:43;;;;;;;51.50;25.68;;;;;;;12.08;100.00;98883.13;1743694;81;21030;-72
2023/10/20 10:41:11;;;;;;;47.98;26.48;;;;;;;12.07;100.00;98878.72;1743816;81;21010;-73
2023/10/20 10:43:40;;;;;;;46.02;25.08;;;;;;;12.10;100.00;98874.11;1743792;82;21061;-70
2023/10/20 10:46:08;;;;;;;43.17;24.75;;;;;;;12.14;100.00;98886.81;1744027;81;21021;-71
2023/10/20 10:48:39;;;;;;;50.98;26.02;;;;;;;12.15;100.00;98887.94;1743658;81;21468;-70
2023/10/20 10:51:08;;;;;;;48.17;25.82;;;;;;;12.19;100.00;98898.72;1743782;81;21053;-71
2023/10/20 10:53:38;;;;;;;44.80;26.70;;;;;;;12.20;100.00;98896.81;1690859;82;21026;-70
2023/10/20 10:56:08;;;;;;;47.45;27.02;;;;;;;12.21;100.00;98906.17;1737151;82;21084;-70
2023/10/20 10:58:37;;;;;;;42.90;23.98;;;;;;;12.24;100.00;98908.43;1732175;83;21008;-72
2023/10/20 11:01:05;;;;;;;45.52;25.25;;;;;;;12.27;100.00;98904.36;1732281;83;21471;-69
2023/10/20 11:03:34;;;;;;;51.13;26.93;;;;;;;12.26;100.00;98915.88;1732261;83;21043;-73
2023/10/20 11:06:03;;;;;;;47.35;26.33;;;;;;;12.30;100.00;98910.73;1732241;83;21043;-72
2023/10/20 11:08:35;;;;;;;40.65;23.80;;;;;;;12.32;100.00;98899.80;1732055;82;21020;-71
2023/10/20 11:11:05;;;;;;;46.48;25.92;;;;;;;12.34;100.00;98897.64;1732328;83;20988;-70
2023/10/20 11:13:34;;;;;;;45.12;25.70;;;;;;;12.37;100.00;98888.94;1732223;83;21028;-71
2023/10/20 11:16:03;;;;;;;48.30;26.27;;;;;;;12.40;100.00;98877.17;1710376;82;21083;-70
2023/10/20 11:18:36;;;;;;;46.18;25.02;;;;;;;12.44;100.00;98878.34;1731227;82;21051;-74
2023/10/20 11:21:03;;;;;;;43.05;25.80;;;;;;;12.47;100.00;98870.98;1731316;83;21024;-72
2023/10/20 11:23:32;;;;;;;61.25;35.73;;;;;;;12.50;100.00;98883.67;1731656;82;21052;-74
2023/10/20 11:26:17;;;;;;;54.23;33.42;;;;;;;12.57;100.00;98884.89;1705910;83;21466;-72
2023/10/20 11:28:45;;;;;;;49.73;28.50;;;;;;;12.61;100.00;98888.81;1708386;83;21119;-72
2023/10/20 11:31:13;;;;;;;48.83;28.25;;;;;;;12.62;100.00;98892.69;1731202;83;21103;-72
2023/10/20 11:33:43;;;;;;;44.00;26.35;;;;;;;12.65;100.00;98898.22;1705203;83;21118;-74
2023/10/20 11:36:14;;;;;;;47.98;27.30;;;;;;;12.65;100.00;98899.59;1731463;82;21107;-73
2023/10/20 11:38:43;;;;;;;50.50;26.97;;;;;;;12.64;100.00;98893.81;1731532;82;21412;-73
2023/10/20 11:41:14;;;;;;;49.63;27.48;;;;;;;12.64;100.00;98891.89;1731409;82;21459;-72
2023/10/20 11:43:43;;;;;;;48.70;26.73;;;;;;;12.65;100.00;98891.36;1731564;83;21040;-73
2023/10/20 11:46:12;;;;;;;46.85;27.45;;;;;;;12.65;100.00;98892.19;1731634;82;21020;-72
2023/10/20 11:48:42;;;;;;;47.33;27.32;;;;;;;12.67;100.00;98894.69;1731269;82;21051;-72
2023/10/20 11:51:10;;;;;;;46.08;26.12;;;;;;;12.70;100.00;98895.56;1705530;83;21012;-68
2023/10/20 11:53:41;;;;;;;51.25;26.80;;;;;;;12.74;100.00;98903.61;1731194;83;21100;-72
2023/10/20 11:56:10;;;;;;;46.80;25.35;;;;;;;12.77;100.00;98902.28;1697774;82;21014;-73
2023/10/20 11:58:39;;;;;;;42.80;25.97;;;;;;;12.78;100.00;98903.94;1733171;83;21429;-74
2023/10/20 12:01:08;;;;;;;47.65;24.65;;;;;;;12.79;100.00;98905.06;1733009;81;21038;-73
2023/10/20 12:03:36;;;;;;;50.88;26.07;;;;;;;12.81;100.00;98907.02;1714760;82;21194;-73
2023/10/20 12:06:07;;;;;;;45.17;25.57;;;;;;;12.83;100.00;98896.62;1733174;83;21022;-74
2023/10/20 12:08:35;;;;;;;51.73;27.85;;;;;;;12.85;100.00;98900.48;1732597;83;21276;-73
2023/10/20 12:11:05;;;;;;;49.88;28.15;;;;;;;12.86;100.00;98898.86;1714763;83;21050;-74
2023/10/20 12:13:36;;;;;;;52.73;27.95;;;;;;;12.87;100.00;98903.28;1733142;81;21058;-72
2023/10/20 12:16:05;;;;;;;45.33;27.00;;;;;;;12.88;100.00;98899.45;1735723;81;21534;-72
2023/10/20 12:18:33;;;;;;;50.35;28.45;;;;;;;12.89;100.00;98903.03;1743757;81;21520;-70
2023/10/20 12:21:03;;;;;;;51.13;27.30;;;;;;;12.89;100.00;98900.28;1715165;82;21527;-70
2023/10/20 12:23:31;;;;;;;46.98;27.52;;;;;;;12.90;100.00;98904.16;1743872;82;20990;-70
2023/10/20 12:26:00;;;;;;;45.90;27.05;;;;;;;12.92;100.00;98904.73;1715262;82;21025;-70
2023/10/20 12:28:31;;;;;;;48.65;27.62;;;;;;;12.96;100.00;98906.45;1715465;82;21100;-72
2023/10/20 12:30:59;;;;;;;48.78;27.20;;;;;;;12.98;100.00;98905.11;1743749;82;20990;-72
2023/10/20 12:33:28;;;;;;;46.83;26.48;;;;;;;13.00;100.00;98902.11;1743873;82;21153;-72
2023/10/20 12:35:57;;;;;;;48.30;25.50;;;;;;;13.03;100.00;98907.14;1743904;81;21021;-73
2023/10/20 12:38:27;;;;;;;46.60;26.27;;;;;;;13.04;100.00;98900.56;1743875;82;21025;-71
2023/10/20 12:40:56;;;;;;;52.40;26.42;;;;;;;13.05;100.00;98895.36;1743710;82;21551;-72
2023/10/20 12:43:26;;;;;;;44.85;25.55;;;;;;;13.06;100.00;98892.90;1715430;82;21069;-73
2023/10/20 12:45:54;;;;;;;49.63;26.77;;;;;;;13.09;100.00;98901.19;1743713;82;21018;-73
2023/10/20 12:48:24;;;;;;;48.17;26.70;;;;;;;13.11;100.00;98910.85;1743799;82;21026;-73
2023/10/20 12:50:53;;;;;;;48.70;25.43;;;;;;;13.14;100.00;98903.47;1715153;82;21427;-73
2023/10/20 12:53:22;;;;;;;48.78;26.90;;;;;;;13.18;100.00;98905.21;1715164;82;21065;-73
2023/10/20 12:55:53;;;;;;;48.10;26.93;;;;;;;13.18;100.00;98902.46;1733131;82;21039;-75
2023/10/20 12:58:21;;;;;;;50.80;27.15;;;;;;;13.21;100.00;98900.05;1699621;83;21152;-75
2023/10/20 13:00:50;;;;;;;48.35;28.10;;;;;;;13.24;100.00;98909.70;1721722;83;21051;-73
2023/10/20 13:03:19;;;;;;;50.03;27.75;;;;;;;13.24;100.00;98898.16;1699616;83;21039;-72
2023/10/20 13:05:48;;;;;;;48.58;26.60;;;;;;;13.25;100.00;98897.08;1721856;83;21098;-73
2023/10/20 13:08:17;;;;;;;46.60;27.40;;;;;;;13.28;100.00;98894.37;1721990;83;21003;-73
2023/10/20 13:10:47;;;;;;;60.35;27.98;;;;;;;13.29;100.00;98898.78;1721921;83;21027;-73
2023/10/20 13:13:19;;;;;;;56.00;29.72;;;;;;;13.30;100.00;98900.45;1699891;83;21046;-73
2023/10/20 13:15:49;;;;;;;54.73;28.12;;;;;;;13.33;100.00;98902.16;1721641;82;21023;-72
2023/10/20 13:18:18;;;;;;;45.60;27.48;;;;;;;13.36;100.00;98895.31;1700202;83;21555;-72
2023/10/20 13:20:47;;;;;;;50.85;28.05;;;;;;;13.36;100.00;98900.81;1693817;83;21047;-71
2023/10/20 13:23:17;;;;;;;47.45;29.27;;;;;;;13.36;100.00;98900.81;1724031;83;21007;-73
2023/10/20 13:25:45;;;;;;;52.23;27.67;;;;;;;13.37;100.00;98897.52;1694163;83;21058;-73
2023/10/20 13:28:14;;;;;;;45.43;26.50;;;;;;;13.38;100.00;98889.02;1723850;83;21450;-74
2023/10/20 13:30:43;;;;;;;45.90;26.95;;;;;;;13.41;100.00;98892.64;1693977;83;21102;-74
2023/10/20 13:33:13;;;;;;;53.28;29.45;;;;;;;13.43;100.00;98895.97;1723731;83;21034;-74
2023/10/20 13:35:42;;;;;;;52.27;27.37;;;;;;;13.44;100.00;98896.26;1724213;83;21059;-72
2023/10/20 13:38:11;;;;;;;47.30;26.73;;;;;;;13.44;100.00;98897.63;1694380;83;21118;-73
2023/10/20 13:40:42;;;;;;;73.90;31.40;;;;;;;13.46;100.00;98905.63;1650861;83;21967;-73
2023/10/20 13:43:12;;;;;;;52.38;26.40;;;;;;;13.46;100.00;98902.34;1724117;83;21545;-74
2023/10/20 13:45:41;;;;;;;43.50;26.42;;;;;;;13.48;100.00;98900.17;1724298;83;21034;-73
2023/10/20 13:48:10;;;;;;;43.20;26.20;;;;;;;13.49;100.00;98900.45;1693683;83;21537;-73
2023/10/20 13:50:40;;;;;;;48.28;26.17;;;;;;;13.47;100.00;98910.88;1724228;83;21113;-73
2023/10/20 13:53:10;;;;;;;45.43;26.00;;;;;;;13.48;100.00;98901.55;1724193;83;21050;-74
2023/10/20 13:55:44;;;;;;;45.12;26.27;;;;;;;13.48;100.00;98902.92;1725620;82;20991;-74
2023/10/20 13:58:14;;;;;;;47.58;24.82;;;;;;;13.47;100.00;98908.67;1729895;82;21028;-72
2023/10/20 14:00:43;;;;;;;43.50;24.90;;;;;;;13.47;100.00;98913.63;1729312;82;21109;-73
2023/10/20 14:03:12;;;;;;;41.10;24.57;;;;;;;13.48;100.00;98914.47;1734826;83;21092;-73
2023/10/20 14:05:54;;;;;;;39.55;24.32;;;;;;;13.45;100.00;98915.80;1733262;82;21077;-74
2023/10/20 14:08:24;;;;;;;42.43;23.02;;;;;;;13.44;100.00;98916.89;1728047;82;21005;-73
2023/10/20 14:10:56;;;;;;;42.40;25.37;;;;;;;13.43;100.00;98906.14;1719888;82;21099;-73
2023/10/20 14:13:25;;;;;;;40.70;24.50;;;;;;;13.41;100.00;98909.69;1699157;83;21040;-73
2023/10/20 14:15:54;;;;;;;40.52;24.82;;;;;;;13.43;100.00;98913.85;1732881;83;21517;-74
2023/10/20 14:18:23;;;;;;;41.50;24.72;;;;;;;13.45;100.00;98916.34;1757458;81;21475;-73
2023/10/20 14:20:53;;;;;;;45.90;24.72;;;;;;;13.46;100.00;98913.34;1759202;81;21075;-76
2023/10/20 14:23:26;;;;;;;40.30;24.10;;;;;;;13.47;100.00;98916.39;1759283;81;21059;-76
2023/10/20 14:26:01;;;;;;;46.90;24.07;;;;;;;13.49;100.00;98916.13;1728253;81;21047;-74
2023/10/20 14:28:32;;;;;;;41.92;25.40;;;;;;;13.48;100.00;98913.92;1759004;81;21448;-73
2023/10/20 14:31:02;;;;;;;41.05;24.40;;;;;;;13.48;100.00;98918.59;1758760;81;21439;-73
2023/10/20 14:33:30;;;;;;;45.17;24.85;;;;;;;13.48;100.00;98922.72;1754443;82;21506;-72
2023/10/20 14:36:00;;;;;;;43.08;23.32;;;;;;;13.49;100.00;98929.89;1733721;82;21024;-73
2023/10/20 14:38:29;;;;;;;42.90;25.05;;;;;;;13.50;100.00;98929.64;1754352;82;21136;-73
2023/10/20 14:41:04;;;;;;;41.88;25.02;;;;;;;13.48;100.00;98927.68;1754654;82;21064;-74
2023/10/20 14:43:34;;;;;;;42.38;24.87;;;;;;;13.48;100.00;98945.56;1754350;81;21533;-72
2023/10/20 14:46:03;;;;;;;49.98;26.15;;;;;;;13.48;100.00;98949.69;1754366;82;21095;-74
2023/10/20 14:48:32;;;;;;;45.52;26.07;;;;;;;13.48;100.00;98954.36;1754311;82;21001;-76
2023/10/20 14:51:10;;;;;;;42.67;25.50;;;;;;;13.45;100.00;98952.11;1754448;82;21461;-74
2023/10/20 14:53:39;;;;;;;48.33;25.32;;;;;;;13.43;100.00;98952.37;1754294;82;21477;-74
2023/10/20 14:56:11;;;;;;;38.85;23.90;;;;;;;13.43;100.00;98961.16;1752890;82;21019;-74
2023/10/20 14:58:41;;;;;;;42.45;24.60;;;;;;;13.43;100.00;98962.00;1732727;82;21086;-73
2023/10/20 15:01:11;;;;;;;41.73;23.27;;;;;;;13.44;100.00;98965.58;1752693;82;21453;-71
2023/10/20 15:03:40;;;;;;;45.00;26.48;;;;;;;13.43;100.00;98974.38;1752963;82;21090;-76
2023/10/20 15:06:10;;;;;;;43.35;25.77;;;;;;;13.43;100.00;98967.50;1769796;80;21094;-73
2023/10/20 15:08:39;;;;;;;46.48;26.02;;;;;;;13.43;100.00;98971.63;1785612;80;21065;-76
2023/10/20 15:11:08;;;;;;;48.33;27.95;;;;;;;13.42;100.00;98974.09;1785679;80;21470;-72
2023/10/20 15:13:36;;;;;;;45.45;26.27;;;;;;;13.40;100.00;98979.55;1755620;80;21050;-75
2023/10/20 15:16:06;;;;;;;45.17;26.57;;;;;;;13.36;100.00;98979.22;1785690;80;20990;-73
2023/10/20 15:18:34;;;;;;;45.15;26.37;;;;;;;13.35;100.00;98984.42;1785473;80;21046;-73
2023/10/20 15:21:06;;;;;;;43.83;22.85;;;;;;;13.36;100.00;98985.27;1755617;80;21027;-72
2023/10/20 15:23:35;;;;;;;44.48;26.00;;;;;;;13.36;100.00;98986.63;1785782;80;21402;-73
2023/10/20 15:26:05;;;;;;;44.98;27.60;;;;;;;13.36;100.00;98981.13;1755553;80;21031;-71
2023/10/20 15:28:35;;;;;;;47.00;27.37;;;;;;;13.36;100.00;98992.97;1755714;80;21178;-71
2023/10/20 15:31:08;;;;;;;53.30;28.90;;;;;;;13.37;100.00;98992.43;1758950;81;21035;-73
2023/10/20 15:33:36;;;;;;;48.98;28.35;;;;;;;13.36;100.00;98999.02;1759390;81;21040;-72
2023/10/20 15:36:10;;;;;;;48.68;26.70;;;;;;;13.37;100.00;98996.02;1728269;81;21020;-72
2023/10/20 15:38:38;;;;;;;46.55;27.82;;;;;;;13.36;100.00;98991.59;1759206;81;21083;-71
2023/10/20 15:41:07;;;;;;;46.42;25.65;;;;;;;13.36;100.00;98998.47;1704566;81;21565;-69
2023/10/20 15:43:36;;;;;;;47.20;27.75;;;;;;;13.35;100.00;99011.94;1759156;81;21444;-67
2023/10/20 15:46:09;;;;;;;48.50;28.12;;;;;;;13.37;100.00;99010.31;1728304;81;21447;-67
2023/10/20 15:48:37;;;;;;;48.13;27.10;;;;;;;13.39;100.00;99013.10;1689211;84;21052;-68
2023/10/20 15:51:07;;;;;;;47.98;27.52;;;;;;;13.39;100.00;98997.97;1760430;81;21064;-69
2023/10/20 15:53:36;;;;;;;50.85;28.17;;;;;;;13.39;100.00;99008.98;1756755;82;21115;-70
2023/10/20 15:56:06;;;;;;;49.05;26.85;;;;;;;13.39;100.00;99014.48;1747185;80;21128;-72
2023/10/20 15:58:35;;;;;;;43.98;25.55;;;;;;;13.37;100.00;99011.14;1780087;80;21026;-68
2023/10/20 16:01:04;;;;;;;45.08;27.17;;;;;;;13.41;100.00;99018.36;1780301;80;21046;-68
2023/10/20 16:03:33;;;;;;;46.77;26.25;;;;;;;13.39;100.00;99022.73;1779843;80;21066;-68
2023/10/20 16:06:02;;;;;;;45.65;27.62;;;;;;;13.38;100.00;99027.11;1757479;80;21082;-68
2023/10/20 16:08:31;;;;;;;49.53;27.35;;;;;;;13.38;100.00;99022.98;1780447;80;21022;-69
2023/10/20 16:11:00;;;;;;;49.75;26.80;;;;;;;13.38;100.00;99019.69;1780459;80;21042;-69
2023/10/20 16:13:30;;;;;;;46.73;26.27;;;;;;;13.39;100.00;99028.23;1780435;80;21047;-65
2023/10/20 16:16:00;;;;;;;57.17;30.25;;;;;;;13.39;100.00;99024.65;1780253;80;21458;-69
2023/10/20 16:18:29;;;;;;;57.78;31.60;;;;;;;13.37;100.00;99029.03;1766455;80;21093;-70
2023/10/20 16:20:58;;;;;;;58.05;33.58;;;;;;;13.37;100.00;99029.56;1761571;81;21074;-68
2023/10/20 16:23:27;;;;;;;65.22;34.35;;;;;;;13.38;100.00;99023.81;1739582;81;21466;-66
2023/10/20 16:25:56;;;;;;;61.05;33.35;;;;;;;13.38;100.00;99025.19;1761523;81;21007;-67
2023/10/20 16:28:25;;;;;;;64.55;33.73;;;;;;;13.38;100.00;99023.81;1761469;81;21037;-70
2023/10/20 16:30:54;;;;;;;59.77;34.38;;;;;;;13.36;100.00;99024.61;1740578;81;21086;-67
2023/10/20 16:33:23;;;;;;;62.95;34.90;;;;;;;13.34;100.00;99021.27;1740641;81;21058;-69
2023/10/20 16:35:56;;;;;;;60.20;34.30;;;;;;;13.32;100.00;99015.19;1761381;81;21074;-70
2023/10/20 16:38:26;;;;;;;64.00;34.38;;;;;;;13.33;100.00;99019.61;1761505;80;21101;-68
2023/10/20 16:40:58;;;;;;;62.60;35.98;;;;;;;13.30;100.00;99004.43;1761518;80;21042;-69
2023/10/20 16:43:28;;;;;;;64.27;35.48;;;;;;;13.28;100.00;99007.97;1761472;81;21014;-69
2023/10/20 16:45:58;;;;;;;86.95;49.77;;;;;;;13.29;100.00;99017.89;1761668;81;21066;-70
2023/10/20 16:48:27;;;;;;;133.57;83.37;;;;;;;13.29;100.00;99012.94;1761521;81;21434;-70
2023/10/20 16:50:57;;;;;;;142.77;88.58;;;;;;;13.27;100.00;99013.72;1741021;81;21050;-69
2023/10/20 16:53:28;;;;;;;118.87;73.65;;;;;;;13.26;100.00;99029.94;1761427;81;21034;-69
2023/10/20 16:56:00;;;;;;;106.97;63.85;;;;;;;13.20;100.00;99026.27;1761497;80;21077;-69
2023/10/20 16:58:30;;;;;;;74.72;46.50;;;;;;;13.18;100.00;99028.97;1761453;81;21089;-71
2023/10/20 17:01:03;;;;;;;77.27;44.53;;;;;;;13.19;100.00;99021.84;1761448;81;21564;-70
2023/10/20 17:03:32;;;;;;;70.65;40.52;;;;;;;13.20;100.00;99019.39;1761408;81;21007;-69
2023/10/20 17:06:05;;;;;;;75.70;43.30;;;;;;;13.19;100.00;99014.13;1739463;81;21544;-68
2023/10/20 17:08:34;;;;;;;70.85;41.37;;;;;;;13.17;100.00;99014.92;1761668;81;21106;-68
2023/10/20 17:11:05;;;;;;;77.08;41.80;;;;;;;13.18;100.00;99009.72;1761765;80;21003;-69
2023/10/20 17:13:34;;;;;;;72.15;39.15;;;;;;;13.16;100.00;99006.34;1761473;81;21103;-69
2023/10/20 17:16:06;;;;;;;68.22;38.90;;;;;;;13.14;100.00;99010.72;1761636;81;21041;-69
2023/10/20 17:18:36;;;;;;;66.17;36.60;;;;;;;13.15;100.00;99011.56;1761375;80;21101;-69
2023/10/20 17:21:09;;;;;;;69.27;37.88;;;;;;;13.16;100.00;99013.23;1761306;81;21132;-69
2023/10/20 17:23:38;;;;;;;65.72;37.63;;;;;;;13.15;100.00;99011.02;1761652;81;21058;-69
2023/10/20 17:26:07;;;;;;;75.10;40.23;;;;;;;13.17;100.00;99014.92;1761506;81;21027;-69
2023/10/20 17:28:36;;;;;;;69.10;38.53;;;;;;;13.15;100.00;99016.52;1761697;81;21019;-68
2023/10/20 17:31:05;;;;;;;71.47;38.53;;;;;;;13.16;100.00;99004.97;1761478;81;21035;-67
2023/10/20 17:33:34;;;;;;;73.10;40.30;;;;;;;13.15;100.00;99011.56;1761529;81;21046;-69
2023/10/20 17:36:06;;;;;;;72.87;41.00;;;;;;;13.11;100.00;99001.59;1739754;81;21030;-67
2023/10/20 17:38:35;;;;;;;72.65;40.63;;;;;;;13.11;100.00;99000.77;1761414;81;21532;-69
2023/10/20 17:41:09;;;;;;;67.92;38.53;;;;;;;13.10;100.00;99005.43;1761437;81;21090;-68
2023/10/20 17:43:40;;;;;;;69.70;39.23;;;;;;;13.12;100.00;99002.43;1761370;81;21430;-69
2023/10/20 17:46:10;;;;;;;71.37;39.60;;;;;;;13.11;100.00;99001.59;1761446;81;21018;-68
2023/10/20 17:48:39;;;;;;;69.32;39.78;;;;;;;13.13;100.00;98999.97;1761430;81;21022;-68
2023/10/20 17:51:08;;;;;;;66.92;37.70;;;;;;;13.11;100.00;98999.39;1761539;81;21062;-68
2023/10/20 17:53:37;;;;;;;72.05;37.30;;;;;;;13.10;100.00;98999.09;1740986;81;21058;-69
2023/10/20 17:56:06;;;;;;;68.65;37.13;;;;;;;13.08;100.00;98991.63;1740860;81;21447;-70
2023/10/20 17:58:35;;;;;;;68.92;37.33;;;;;;;13.07;100.00;99002.34;1761454;81;21133;-68
2023/10/20 18:01:07;;;;;;;68.47;38.40;;;;;;;13.09;100.00;99005.67;1761588;81;20975;-69
2023/10/20 18:03:45;;;;;;;67.47;37.17;;;;;;;13.09;100.00;99008.42;1761460;81;21022;-69
2023/10/20 18:06:16;;;;;;;66.80;37.83;;;;;;;13.08;100.00;98999.34;1761772;81;20987;-70
2023/10/20 18:08:47;;;;;;;67.55;38.92;;;;;;;13.08;100.00;98997.97;1761108;81;21011;-69
2023/10/20 18:11:18;;;;;;;64.72;37.23;;;;;;;13.10;100.00;98994.97;1761480;81;20995;-69
2023/10/20 18:13:50;;;;;;;67.92;37.80;;;;;;;13.08;100.00;99000.72;1761392;81;21114;-70
2023/10/20 18:16:20;;;;;;;66.75;37.13;;;;;;;13.07;100.00;98998.22;1761477;81;21085;-70
2023/10/20 18:18:51;;;;;;;63.48;37.78;;;;;;;13.05;100.00;98999.00;1741940;82;21501;-68
2023/10/20 18:21:21;;;;;;;72.03;41.53;;;;;;;13.05;100.00;99003.13;1745896;82;21066;-68
2023/10/20 18:23:57;;;;;;;78.72;42.90;;;;;;;13.06;100.00;99007.55;1756247;80;21117;-68
2023/10/20 18:26:26;;;;;;;72.45;42.20;;;;;;;13.05;100.00;99004.51;1756279;81;21063;-70
2023/10/20 18:28:55;;;;;;;75.60;42.70;;;;;;;13.02;100.00;98998.95;1756180;80;21466;-70
2023/10/20 18:31:23;;;;;;;76.15;43.48;;;;;;;12.99;100.00;98997.51;1756085;81;21142;-70
2023/10/20 18:33:57;;;;;;;76.72;43.10;;;;;;;13.01;100.00;98995.37;1722157;82;21043;-70
2023/10/20 18:36:23;;;;;;;78.35;44.35;;;;;;;13.04;100.00;98991.84;1756493;81;21035;-69
2023/10/20 18:38:54;;;;;;;74.12;43.17;;;;;;;13.03;100.00;98988.80;1756369;82;21038;-71
2023/10/20 18:41:24;;;;;;;86.15;45.92;;;;;;;13.03;100.00;98989.63;1756680;82;21054;-69
2023/10/20 18:43:53;;;;;;;83.42;44.73;;;;;;;13.04;100.00;98989.09;1756293;81;21085;-70
2023/10/20 18:46:23;;;;;;;83.62;46.95;;;;;;;13.03;100.00;98991.55;1756384;82;21446;-70
2023/10/20 18:48:54;;;;;;;89.07;48.30;;;;;;;13.02;100.00;99000.33;1756457;82;21434;-68
2023/10/20 18:51:22;;;;;;;88.47;47.15;;;;;;;12.99;100.00;98990.63;1756387;81;21027;-69
2023/10/20 18:53:52;;;;;;;86.57;47.40;;;;;;;13.00;100.00;98995.09;1756434;82;21054;-70
2023/10/20 18:56:21;;;;;;;85.42;48.52;;;;;;;13.03;100.00;99002.00;1756416;82;21015;-69
2023/10/20 18:58:50;;;;;;;86.47;50.33;;;;;;;13.03;100.00;99002.55;1756114;82;21031;-70
2023/10/20 19:01:20;;;;;;;92.85;48.80;;;;;;;13.05;100.00;99001.75;1756672;82;21046;-69
2023/10/20 19:03:51;;;;;;;82.80;46.25;;;;;;;13.06;100.00;99004.26;1745990;82;21082;-69
2023/10/20 19:06:20;;;;;;;85.92;47.55;;;;;;;13.02;100.00;98998.95;1756497;82;21564;-70
2023/10/20 19:08:51;;;;;;;98.60;52.05;;;;;;;12.99;100.00;98996.13;1756596;82;21050;-69
2023/10/20 19:11:21;;;;;;;93.78;52.55;;;;;;;12.98;100.00;98990.88;1756258;81;21066;-70
2023/10/20 19:13:51;;;;;;;99.52;55.40;;;;;;;12.97;100.00;98996.92;1756621;82;21067;-70
2023/10/20 19:16:20;;;;;;;96.72;52.95;;;;;;;12.97;100.00;98998.84;1756420;82;21497;-70
2023/10/20 19:18:49;;;;;;;89.90;52.30;;;;;;;12.94;100.00;98990.55;1758952;81;21078;-69
2023/10/20 19:21:17;;;;;;;96.08;51.92;;;;;;;12.94;100.00;98996.05;1761621;81;21030;-72
2023/10/20 19:23:47;;;;;;;94.05;52.90;;;;;;;12.95;100.00;98995.50;1761642;80;21462;-69
2023/10/20 19:26:16;;;;;;;95.72;55.33;;;;;;;12.96;100.00;98993.88;1761739;81;21478;-70
2023/10/20 19:28:46;;;;;;;96.40;54.75;;;;;;;12.98;100.00;98991.72;1761564;81;21171;-70
2023/10/20 19:31:15;;;;;;;91.90;53.15;;;;;;;13.02;100.00;98989.34;1761512;80;21276;-68
2023/10/20 19:33:44;;;;;;;93.07;52.33;;;;;;;13.03;100.00;98986.87;1740834;81;21098;-69
2023/10/20 19:36:13;;;;;;;96.67;53.25;;;;;;;13.02;100.00;98992.09;1702453;81;21023;-69
2023/10/20 19:38:42;;;;;;;88.87;51.42;;;;;;;12.98;100.00;98992.26;1740744;81;21450;-69
2023/10/20 19:41:13;;;;;;;90.97;49.93;;;;;;;12.97;100.00;98983.17;1741034;81;21027;-69
2023/10/20 19:43:41;;;;;;;88.67;48.08;;;;;;;12.99;100.00;98979.64;1761637;81;21047;-71
2023/10/20 19:46:10;;;;;;;83.80;49.15;;;;;;;12.97;100.00;98973.55;1741059;81;21074;-69
2023/10/20 19:48:39;;;;;;;88.45;47.45;;;;;;;12.96;100.00;98980.67;1761665;81;21062;-71
2023/10/20 19:51:10;;;;;;;83.17;47.35;;;;;;;12.94;100.00;98979.55;1739359;80;21549;-69
2023/10/20 19:53:39;;;;;;;86.75;49.83;;;;;;;12.95;100.00;98974.34;1761701;81;21054;-71
2023/10/20 19:56:08;;;;;;;92.12;50.70;;;;;;;12.96;100.00;98983.42;1761762;81;21026;-70
2023/10/20 19:58:36;;;;;;;84.72;49.35;;;;;;;12.94;100.00;98979.55;1739461;81;21082;-69
2023/10/20 20:01:05;;;;;;;85.62;51.15;;;;;;;12.91;100.00;98969.05;1761228;81;21011;-69
2023/10/20 20:03:33;;;;;;;85.80;50.00;;;;;;;12.90;100.00;98967.92;1761618;81;21011;-70
2023/10/20 20:06:12;;;;;;;92.78;49.67;;;;;;;12.90;100.00;98970.67;1739510;81;21128;-68
2023/10/20 20:08:41;;;;;;;83.67;50.28;;;;;;;12.87;100.00;98966.50;1761547;81;21022;-70
2023/10/20 20:11:10;;;;;;;84.10;50.15;;;;;;;12.87;100.00;98972.00;1761725;81;21026;-69
2023/10/20 20:13:38;;;;;;;91.47;51.25;;;;;;;12.87;100.00;98966.50;1761652;81;21026;-69
2023/10/20 20:16:12;;;;;;;91.10;51.08;;;;;;;12.87;100.00;98970.63;1761502;81;21051;-70
2023/10/20 20:18:42;;;;;;;96.22;52.98;;;;;;;12.85;100.00;98967.30;1768055;80;21474;-70
2023/10/20 20:21:12;;;;;;;88.97;50.05;;;;;;;12.87;100.00;98970.63;1782694;80;20995;-69
2023/10/20 20:23:40;;;;;;;87.05;51.33;;;;;;;12.89;100.00;98975.34;1782746;80;20979;-70
2023/10/20 20:26:09;;;;;;;98.42;53.10;;;;;;;12.91;100.00;98974.55;1782743;80;21042;-71
2023/10/20 20:28:40;;;;;;;94.70;53.10;;;;;;;12.92;100.00;98972.09;1782842;80;21055;-71
2023/10/20 20:31:09;;;;;;;90.42;51.33;;;;;;;12.93;100.00;98969.63;1782809;80;20979;-71
2023/10/20 20:33:38;;;;;;;91.17;53.17;;;;;;;12.92;100.00;98970.72;1783107;80;21030;-70
2023/10/20 20:36:07;;;;;;;89.00;51.92;;;;;;;12.94;100.00;98974.59;1782998;80;21023;-71